sensor_id;sensor_type;location;lat;lon;timestamp;temperature;humidity
22450;DHT22;11392;57.390;-2.468;2022-10-16T00:01:27;7.80;99.90
22450;DHT22;11392;57.390;-2.468;2022-10-16T00:03:56;7.80;99.90
22450;DHT22;11392;57.390;-2.468;2022-10-16T00:06:25;7.70;99.90
22450;DHT22;11392;57.390;-2.468;2022-10-16T00:08:52;7.70;99.90
22450;DHT22;11392;57.390;-2.468;2022-10-16T00:11:26;7.70;99.90
22450;DHT22;11392;57.390;-2.468;2022-10-16T00:13:59;7.60;99.90
22450;DHT22;11392;57.390;-2.468;2022-10-16T00:16:27;7.60;99.90
22450;DHT22;11392;57.390;-2.468;2022-10-16T00:18:55;7.50;99.90
22450;DHT22;11392;57.390;-2.468;2022-10-16T00:21:24;7.50;99.90
22450;DHT22;11392;57.390;-2.468;2022-10-16T00:23:59;7.50;99.90
22450;DHT22;11392;57.390;-2.468;2022-10-16T00:26:28;7.40;99.90
22450;DHT22;11392;57.390;-2.468;2022-10-16T00:28:55;7.40;99.90
22450;DHT22;11392;57.390;-2.468;2022-10-16T00:31:23;7.40;99.90
22450;DHT22;11392;57.390;-2.468;2022-10-16T00:33:51;7.30;99.90
22450;DHT22;11392;57.390;-2.468;2022-10-16T00:36:20;7.40;99.90
22450;DHT22;11392;57.390;-2.468;2022-10-16T00:38:51;7.30;99.90
22450;DHT22;11392;57.390;-2.468;2022-10-16T00:41:20;7.30;99.90
22450;DHT22;11392;57.390;-2.468;2022-10-16T00:43:50;7.30;99.90
22450;DHT22;11392;57.390;-2.468;2022-10-16T00:46:29;7.20;99.90
22450;DHT22;11392;57.390;-2.468;2022-10-16T00:49:24;7.20;99.90
22450;DHT22;11392;57.390;-2.468;2022-10-16T00:51:53;7.20;99.90
22450;DHT22;11392;57.390;-2.468;2022-10-16T00:54:26;7.10;99.90
22450;DHT22;11392;57.390;-2.468;2022-10-16T00:56:55;7.10;99.90
22450;DHT22;11392;57.390;-2.468;2022-10-16T00:59:26;7.10;99.90
22450;DHT22;11392;57.390;-2.468;2022-10-16T01:01:54;7.00;99.90
22450;DHT22;11392;57.390;-2.468;2022-10-16T01:04:22;7.10;99.90
22450;DHT22;11392;57.390;-2.468;2022-10-16T01:07:36;7.10;99.90
22450;DHT22;11392;57.390;-2.468;2022-10-16T01:10:17;7.20;99.90
22450;DHT22;11392;57.390;-2.468;2022-10-16T01:15:24;7.20;99.90
22450;DHT22;11392;57.390;-2.468;2022-10-16T01:18:45;7.20;99.90
22450;DHT22;11392;57.390;-2.468;2022-10-16T01:21:13;7.20;99.90
22450;DHT22;11392;57.390;-2.468;2022-10-16T01:24:03;7.30;99.90
22450;DHT22;11392;57.390;-2.468;2022-10-16T01:29:39;7.30;99.90
22450;DHT22;11392;57.390;-2.468;2022-10-16T01:32:22;7.40;99.90
22450;DHT22;11392;57.390;-2.468;2022-10-16T01:35:10;7.50;99.90
22450;DHT22;11392;57.390;-2.468;2022-10-16T01:37:41;7.50;99.90
22450;DHT22;11392;57.390;-2.468;2022-10-16T01:40:13;7.60;99.90
22450;DHT22;11392;57.390;-2.468;2022-10-16T01:42:59;7.50;99.90
22450;DHT22;11392;57.390;-2.468;2022-10-16T01:45:28;7.50;99.90
22450;DHT22;11392;57.390;-2.468;2022-10-16T01:47:56;7.40;99.90
22450;DHT22;11392;57.390;-2.468;2022-10-16T01:50:25;7.40;99.90
22450;DHT22;11392;57.390;-2.468;2022-10-16T01:52:53;7.30;99.90
22450;DHT22;11392;57.390;-2.468;2022-10-16T01:55:28;7.30;99.90
22450;DHT22;11392;57.390;-2.468;2022-10-16T01:57:56;7.30;99.90
22450;DHT22;11392;57.390;-2.468;2022-10-16T02:00:26;7.30;99.90
22450;DHT22;11392;57.390;-2.468;2022-10-16T02:02:55;7.30;99.90
22450;DHT22;11392;57.390;-2.468;2022-10-16T02:08:06;7.40;99.90
22450;DHT22;11392;57.390;-2.468;2022-10-16T02:10:35;7.50;99.90
22450;DHT22;11392;57.390;-2.468;2022-10-16T02:13:31;7.60;99.90
22450;DHT22;11392;57.390;-2.468;2022-10-16T02:15:59;7.60;99.90
22450;DHT22;11392;57.390;-2.468;2022-10-16T02:18:26;7.60;99.90
22450;DHT22;11392;57.390;-2.468;2022-10-16T02:23:51;7.50;99.90
22450;DHT22;11392;57.390;-2.468;2022-10-16T02:27:11;7.40;99.90
22450;DHT22;11392;57.390;-2.468;2022-10-16T02:29:24;7.40;99.90
22450;DHT22;11392;57.390;-2.468;2022-10-16T02:31:56;7.20;99.90
22450;DHT22;11392;57.390;-2.468;2022-10-16T02:34:26;7.10;99.90
22450;DHT22;11392;57.390;-2.468;2022-10-16T02:36:56;7.00;99.90
22450;DHT22;11392;57.390;-2.468;2022-10-16T02:39:24;7.00;99.90
22450;DHT22;11392;57.390;-2.468;2022-10-16T02:41:53;6.90;99.90
22450;DHT22;11392;57.390;-2.468;2022-10-16T02:44:20;7.00;99.90
22450;DHT22;11392;57.390;-2.468;2022-10-16T02:46:47;6.90;99.90
22450;DHT22;11392;57.390;-2.468;2022-10-16T02:49:15;7.00;99.90
22450;DHT22;11392;57.390;-2.468;2022-10-16T02:51:42;6.90;99.90
22450;DHT22;11392;57.390;-2.468;2022-10-16T02:54:09;6.90;99.90
22450;DHT22;11392;57.390;-2.468;2022-10-16T02:56:36;6.90;99.90
22450;DHT22;11392;57.390;-2.468;2022-10-16T02:59:03;6.90;99.90
22450;DHT22;11392;57.390;-2.468;2022-10-16T03:01:30;7.00;99.90
22450;DHT22;11392;57.390;-2.468;2022-10-16T03:03:57;7.00;99.90
22450;DHT22;11392;57.390;-2.468;2022-10-16T03:06:23;7.00;99.90
22450;DHT22;11392;57.390;-2.468;2022-10-16T03:08:50;7.00;99.90
22450;DHT22;11392;57.390;-2.468;2022-10-16T03:11:17;6.90;99.90
22450;DHT22;11392;57.390;-2.468;2022-10-16T03:13:44;7.00;99.90
22450;DHT22;11392;57.390;-2.468;2022-10-16T03:16:11;7.00;99.90
22450;DHT22;11392;57.390;-2.468;2022-10-16T03:18:38;7.00;99.90
22450;DHT22;11392;57.390;-2.468;2022-10-16T03:21:05;6.90;99.90
22450;DHT22;11392;57.390;-2.468;2022-10-16T03:23:32;6.90;99.90
22450;DHT22;11392;57.390;-2.468;2022-10-16T03:25:59;6.90;99.90
22450;DHT22;11392;57.390;-2.468;2022-10-16T03:28:26;6.90;99.90
22450;DHT22;11392;57.390;-2.468;2022-10-16T03:30:53;6.80;99.90
22450;DHT22;11392;57.390;-2.468;2022-10-16T03:33:20;6.80;99.90
22450;DHT22;11392;57.390;-2.468;2022-10-16T03:35:51;6.80;99.90
22450;DHT22;11392;57.390;-2.468;2022-10-16T03:38:20;6.70;99.90
22450;DHT22;11392;57.390;-2.468;2022-10-16T03:40:47;6.70;99.90
22450;DHT22;11392;57.390;-2.468;2022-10-16T03:43:15;6.60;99.90
22450;DHT22;11392;57.390;-2.468;2022-10-16T03:45:42;6.60;99.90
22450;DHT22;11392;57.390;-2.468;2022-10-16T03:48:09;6.60;99.90
22450;DHT22;11392;57.390;-2.468;2022-10-16T03:50:36;6.60;99.90
22450;DHT22;11392;57.390;-2.468;2022-10-16T03:53:03;6.50;99.90
22450;DHT22;11392;57.390;-2.468;2022-10-16T03:55:30;6.50;99.90
22450;DHT22;11392;57.390;-2.468;2022-10-16T03:57:57;6.40;99.90
22450;DHT22;11392;57.390;-2.468;2022-10-16T04:00:24;6.40;99.90
22450;DHT22;11392;57.390;-2.468;2022-10-16T04:02:51;6.40;99.90
22450;DHT22;11392;57.390;-2.468;2022-10-16T04:05:18;6.40;99.90
22450;DHT22;11392;57.390;-2.468;2022-10-16T04:07:45;6.40;99.90
22450;DHT22;11392;57.390;-2.468;2022-10-16T04:10:12;6.40;99.90
22450;DHT22;11392;57.390;-2.468;2022-10-16T04:12:39;6.40;99.90
22450;DHT22;11392;57.390;-2.468;2022-10-16T04:15:06;6.30;99.90
22450;DHT22;11392;57.390;-2.468;2022-10-16T04:17:33;6.30;99.90
22450;DHT22;11392;57.390;-2.468;2022-10-16T04:20:00;6.20;99.90
22450;DHT22;11392;57.390;-2.468;2022-10-16T04:22:27;6.20;99.90
22450;DHT22;11392;57.390;-2.468;2022-10-16T04:24:55;6.10;99.90
22450;DHT22;11392;57.390;-2.468;2022-10-16T04:27:22;6.10;99.90
22450;DHT22;11392;57.390;-2.468;2022-10-16T04:29:49;6.00;99.90
22450;DHT22;11392;57.390;-2.468;2022-10-16T04:32:16;6.00;99.90
22450;DHT22;11392;57.390;-2.468;2022-10-16T04:34:43;6.00;99.90
22450;DHT22;11392;57.390;-2.468;2022-10-16T04:37:10;6.00;99.90
22450;DHT22;11392;57.390;-2.468;2022-10-16T04:39:37;6.00;99.90
22450;DHT22;11392;57.390;-2.468;2022-10-16T04:42:04;6.00;99.90
22450;DHT22;11392;57.390;-2.468;2022-10-16T04:44:31;5.90;99.90
22450;DHT22;11392;57.390;-2.468;2022-10-16T04:46:57;5.90;99.90
22450;DHT22;11392;57.390;-2.468;2022-10-16T04:49:24;5.90;99.90
22450;DHT22;11392;57.390;-2.468;2022-10-16T04:51:51;5.90;99.90
22450;DHT22;11392;57.390;-2.468;2022-10-16T04:54:18;5.90;99.90
22450;DHT22;11392;57.390;-2.468;2022-10-16T04:56:45;5.90;99.90
22450;DHT22;11392;57.390;-2.468;2022-10-16T04:59:18;5.90;99.90
22450;DHT22;11392;57.390;-2.468;2022-10-16T05:01:45;5.90;99.90
22450;DHT22;11392;57.390;-2.468;2022-10-16T05:04:12;5.90;99.90
22450;DHT22;11392;57.390;-2.468;2022-10-16T05:06:42;5.90;99.90
22450;DHT22;11392;57.390;-2.468;2022-10-16T05:09:09;5.90;99.90
22450;DHT22;11392;57.390;-2.468;2022-10-16T05:11:36;5.80;99.90
22450;DHT22;11392;57.390;-2.468;2022-10-16T05:14:03;5.80;99.90
22450;DHT22;11392;57.390;-2.468;2022-10-16T05:16:30;5.80;99.90
22450;DHT22;11392;57.390;-2.468;2022-10-16T05:18:57;5.70;99.90
22450;DHT22;11392;57.390;-2.468;2022-10-16T05:21:44;5.50;99.90
22450;DHT22;11392;57.390;-2.468;2022-10-16T05:24:11;5.40;99.90
22450;DHT22;11392;57.390;-2.468;2022-10-16T05:26:38;5.40;99.90
22450;DHT22;11392;57.390;-2.468;2022-10-16T05:29:05;5.40;99.90
22450;DHT22;11392;57.390;-2.468;2022-10-16T05:31:32;5.40;99.90
22450;DHT22;11392;57.390;-2.468;2022-10-16T05:34:00;5.30;99.90
22450;DHT22;11392;57.390;-2.468;2022-10-16T05:36:27;5.30;99.90
22450;DHT22;11392;57.390;-2.468;2022-10-16T05:38:54;5.30;99.90
22450;DHT22;11392;57.390;-2.468;2022-10-16T05:41:21;5.30;99.90
22450;DHT22;11392;57.390;-2.468;2022-10-16T05:43:50;5.30;99.90
22450;DHT22;11392;57.390;-2.468;2022-10-16T05:46:17;5.20;99.90
22450;DHT22;11392;57.390;-2.468;2022-10-16T05:48:44;5.00;99.90
22450;DHT22;11392;57.390;-2.468;2022-10-16T05:51:13;4.80;99.90
22450;DHT22;11392;57.390;-2.468;2022-10-16T05:53:41;4.70;99.90
22450;DHT22;11392;57.390;-2.468;2022-10-16T05:56:13;4.70;99.90
22450;DHT22;11392;57.390;-2.468;2022-10-16T05:58:40;4.70;99.90
22450;DHT22;11392;57.390;-2.468;2022-10-16T06:01:11;4.70;99.90
22450;DHT22;11392;57.390;-2.468;2022-10-16T06:03:39;4.60;99.90
22450;DHT22;11392;57.390;-2.468;2022-10-16T06:06:14;4.70;99.90
22450;DHT22;11392;57.390;-2.468;2022-10-16T06:08:43;4.70;99.90
22450;DHT22;11392;57.390;-2.468;2022-10-16T06:11:18;4.60;99.90
22450;DHT22;11392;57.390;-2.468;2022-10-16T06:13:49;4.60;99.90
22450;DHT22;11392;57.390;-2.468;2022-10-16T06:16:17;4.60;99.90
22450;DHT22;11392;57.390;-2.468;2022-10-16T06:18:46;4.70;99.90
22450;DHT22;11392;57.390;-2.468;2022-10-16T06:21:18;4.70;99.90
22450;DHT22;11392;57.390;-2.468;2022-10-16T06:23:46;4.70;99.90
22450;DHT22;11392;57.390;-2.468;2022-10-16T06:26:15;4.80;99.90
22450;DHT22;11392;57.390;-2.468;2022-10-16T06:28:42;4.80;99.90
22450;DHT22;11392;57.390;-2.468;2022-10-16T06:31:10;4.90;99.90
22450;DHT22;11392;57.390;-2.468;2022-10-16T06:33:38;4.90;99.90
22450;DHT22;11392;57.390;-2.468;2022-10-16T06:36:07;4.90;99.90
22450;DHT22;11392;57.390;-2.468;2022-10-16T06:38:35;4.80;99.90
22450;DHT22;11392;57.390;-2.468;2022-10-16T06:41:03;4.80;99.90
22450;DHT22;11392;57.390;-2.468;2022-10-16T06:43:30;4.90;99.90
22450;DHT22;11392;57.390;-2.468;2022-10-16T06:46:05;4.90;99.90
22450;DHT22;11392;57.390;-2.468;2022-10-16T06:48:35;4.90;99.90
22450;DHT22;11392;57.390;-2.468;2022-10-16T06:51:04;4.90;99.90
22450;DHT22;11392;57.390;-2.468;2022-10-16T06:53:37;5.00;99.90
22450;DHT22;11392;57.390;-2.468;2022-10-16T06:56:19;5.00;99.90
22450;DHT22;11392;57.390;-2.468;2022-10-16T06:58:46;5.00;99.90
22450;DHT22;11392;57.390;-2.468;2022-10-16T07:01:15;5.10;99.90
22450;DHT22;11392;57.390;-2.468;2022-10-16T07:03:43;5.30;99.90
22450;DHT22;11392;57.390;-2.468;2022-10-16T07:06:15;5.40;99.90
22450;DHT22;11392;57.390;-2.468;2022-10-16T07:08:44;5.70;99.90
22450;DHT22;11392;57.390;-2.468;2022-10-16T07:11:16;5.90;99.90
22450;DHT22;11392;57.390;-2.468;2022-10-16T07:13:45;6.30;99.90
22450;DHT22;11392;57.390;-2.468;2022-10-16T07:16:22;6.30;99.90
22450;DHT22;11392;57.390;-2.468;2022-10-16T07:18:49;6.00;99.90
22450;DHT22;11392;57.390;-2.468;2022-10-16T07:21:21;5.70;99.90
22450;DHT22;11392;57.390;-2.468;2022-10-16T07:23:53;5.50;99.90
22450;DHT22;11392;57.390;-2.468;2022-10-16T07:26:22;5.30;99.90
22450;DHT22;11392;57.390;-2.468;2022-10-16T07:28:50;5.20;99.90
22450;DHT22;11392;57.390;-2.468;2022-10-16T07:31:22;5.20;99.90
22450;DHT22;11392;57.390;-2.468;2022-10-16T07:33:49;5.10;99.90
22450;DHT22;11392;57.390;-2.468;2022-10-16T07:36:18;5.10;99.90
22450;DHT22;11392;57.390;-2.468;2022-10-16T07:38:45;5.10;99.90
22450;DHT22;11392;57.390;-2.468;2022-10-16T07:41:18;5.10;99.90
22450;DHT22;11392;57.390;-2.468;2022-10-16T07:43:46;5.20;99.90
22450;DHT22;11392;57.390;-2.468;2022-10-16T07:46:14;5.20;99.90
22450;DHT22;11392;57.390;-2.468;2022-10-16T07:48:41;5.20;99.90
22450;DHT22;11392;57.390;-2.468;2022-10-16T07:51:13;5.30;99.90
22450;DHT22;11392;57.390;-2.468;2022-10-16T07:53:40;5.30;99.90
22450;DHT22;11392;57.390;-2.468;2022-10-16T07:56:07;5.50;99.90
22450;DHT22;11392;57.390;-2.468;2022-10-16T07:58:35;5.50;99.90
22450;DHT22;11392;57.390;-2.468;2022-10-16T08:01:06;5.60;99.90
22450;DHT22;11392;57.390;-2.468;2022-10-16T08:03:34;5.60;99.90
22450;DHT22;11392;57.390;-2.468;2022-10-16T08:06:02;5.70;99.90
22450;DHT22;11392;57.390;-2.468;2022-10-16T08:08:29;5.80;99.90
22450;DHT22;11392;57.390;-2.468;2022-10-16T08:10:56;5.80;99.90
22450;DHT22;11392;57.390;-2.468;2022-10-16T08:13:23;5.90;99.90
22450;DHT22;11392;57.390;-2.468;2022-10-16T08:15:50;6.00;99.90
22450;DHT22;11392;57.390;-2.468;2022-10-16T08:18:17;6.20;99.90
22450;DHT22;11392;57.390;-2.468;2022-10-16T08:20:44;6.30;99.90
22450;DHT22;11392;57.390;-2.468;2022-10-16T08:23:12;6.30;99.90
22450;DHT22;11392;57.390;-2.468;2022-10-16T08:25:41;6.30;99.90
22450;DHT22;11392;57.390;-2.468;2022-10-16T08:28:10;6.30;99.90
22450;DHT22;11392;57.390;-2.468;2022-10-16T08:30:37;6.30;99.90
22450;DHT22;11392;57.390;-2.468;2022-10-16T08:33:05;6.40;99.90
22450;DHT22;11392;57.390;-2.468;2022-10-16T08:35:33;6.50;99.90
22450;DHT22;11392;57.390;-2.468;2022-10-16T08:38:02;6.60;99.90
22450;DHT22;11392;57.390;-2.468;2022-10-16T08:40:31;6.70;99.90
22450;DHT22;11392;57.390;-2.468;2022-10-16T08:46:46;7.00;99.90
22450;DHT22;11392;57.390;-2.468;2022-10-16T08:49:18;7.10;99.90
22450;DHT22;11392;57.390;-2.468;2022-10-16T08:51:45;7.30;99.90
22450;DHT22;11392;57.390;-2.468;2022-10-16T08:56:49;7.60;99.90
22450;DHT22;11392;57.390;-2.468;2022-10-16T08:59:17;7.70;99.90
22450;DHT22;11392;57.390;-2.468;2022-10-16T09:01:46;8.10;99.90
22450;DHT22;11392;57.390;-2.468;2022-10-16T09:04:21;8.60;99.90
22450;DHT22;11392;57.390;-2.468;2022-10-16T09:06:59;9.30;99.90
22450;DHT22;11392;57.390;-2.468;2022-10-16T09:20:19;11.90;99.90
22450;DHT22;11392;57.390;-2.468;2022-10-16T09:23:13;12.10;99.90
22450;DHT22;11392;57.390;-2.468;2022-10-16T09:25:39;12.20;99.90
22450;DHT22;11392;57.390;-2.468;2022-10-16T09:28:08;12.50;99.90
22450;DHT22;11392;57.390;-2.468;2022-10-16T09:30:37;12.80;99.90
22450;DHT22;11392;57.390;-2.468;2022-10-16T09:33:09;13.10;99.90
22450;DHT22;11392;57.390;-2.468;2022-10-16T09:35:39;13.30;99.90
22450;DHT22;11392;57.390;-2.468;2022-10-16T09:38:07;13.50;99.90
22450;DHT22;11392;57.390;-2.468;2022-10-16T09:40:37;13.60;99.90
22450;DHT22;11392;57.390;-2.468;2022-10-16T09:43:23;13.40;99.90
22450;DHT22;11392;57.390;-2.468;2022-10-16T09:46:08;13.50;99.90
22450;DHT22;11392;57.390;-2.468;2022-10-16T09:48:44;13.90;99.90
22450;DHT22;11392;57.390;-2.468;2022-10-16T09:56:36;15.20;99.90
22450;DHT22;11392;57.390;-2.468;2022-10-16T09:59:10;15.40;99.90
22450;DHT22;11392;57.390;-2.468;2022-10-16T10:01:40;15.50;99.90
22450;DHT22;11392;57.390;-2.468;2022-10-16T10:04:08;15.60;99.90
22450;DHT22;11392;57.390;-2.468;2022-10-16T10:06:43;15.40;99.90
22450;DHT22;11392;57.390;-2.468;2022-10-16T10:09:23;15.60;99.90
22450;DHT22;11392;57.390;-2.468;2022-10-16T10:11:53;16.20;99.90
22450;DHT22;11392;57.390;-2.468;2022-10-16T10:19:42;16.60;99.90
22450;DHT22;11392;57.390;-2.468;2022-10-16T10:22:41;16.50;99.90
22450;DHT22;11392;57.390;-2.468;2022-10-16T10:25:19;16.70;99.90
22450;DHT22;11392;57.390;-2.468;2022-10-16T10:30:42;16.40;99.90
22450;DHT22;11392;57.390;-2.468;2022-10-16T10:36:40;15.50;99.90
22450;DHT22;11392;57.390;-2.468;2022-10-16T10:55:52;15.80;99.90
22450;DHT22;11392;57.390;-2.468;2022-10-16T10:58:35;15.70;99.90
22450;DHT22;11392;57.390;-2.468;2022-10-16T11:07:04;15.90;99.90
22450;DHT22;11392;57.390;-2.468;2022-10-16T11:09:38;16.00;99.90
22450;DHT22;11392;57.390;-2.468;2022-10-16T11:14:40;15.90;99.90
22450;DHT22;11392;57.390;-2.468;2022-10-16T11:19:47;16.10;99.90
22450;DHT22;11392;57.390;-2.468;2022-10-16T11:22:32;16.00;99.90
22450;DHT22;11392;57.390;-2.468;2022-10-16T11:25:26;15.90;99.90
22450;DHT22;11392;57.390;-2.468;2022-10-16T11:28:12;16.60;99.90
22450;DHT22;11392;57.390;-2.468;2022-10-16T11:30:49;16.30;99.90
22450;DHT22;11392;57.390;-2.468;2022-10-16T11:38:29;16.00;99.90
22450;DHT22;11392;57.390;-2.468;2022-10-16T11:41:02;16.50;99.90
22450;DHT22;11392;57.390;-2.468;2022-10-16T11:46:08;17.20;99.90
22450;DHT22;11392;57.390;-2.468;2022-10-16T11:49:24;17.70;99.90
22450;DHT22;11392;57.390;-2.468;2022-10-16T11:51:39;17.60;99.90
22450;DHT22;11392;57.390;-2.468;2022-10-16T11:54:33;17.20;99.90
22450;DHT22;11392;57.390;-2.468;2022-10-16T11:57:42;17.30;99.90
22450;DHT22;11392;57.390;-2.468;2022-10-16T12:02:56;18.40;99.90
22450;DHT22;11392;57.390;-2.468;2022-10-16T12:08:16;18.70;99.90
22450;DHT22;11392;57.390;-2.468;2022-10-16T12:10:45;18.70;99.90
22450;DHT22;11392;57.390;-2.468;2022-10-16T12:13:34;18.50;99.90
22450;DHT22;11392;57.390;-2.468;2022-10-16T12:18:33;19.90;99.90
22450;DHT22;11392;57.390;-2.468;2022-10-16T12:21:00;19.70;99.90
22450;DHT22;11392;57.390;-2.468;2022-10-16T12:23:37;19.50;99.90
22450;DHT22;11392;57.390;-2.468;2022-10-16T12:26:05;20.10;99.90
22450;DHT22;11392;57.390;-2.468;2022-10-16T12:28:33;19.90;99.90
22450;DHT22;11392;57.390;-2.468;2022-10-16T12:31:08;20.20;99.90
22450;DHT22;11392;57.390;-2.468;2022-10-16T12:33:57;19.20;99.90
22450;DHT22;11392;57.390;-2.468;2022-10-16T12:36:33;18.40;99.90
22450;DHT22;11392;57.390;-2.468;2022-10-16T12:39:01;18.00;99.90
22450;DHT22;11392;57.390;-2.468;2022-10-16T12:41:34;18.30;99.90
22450;DHT22;11392;57.390;-2.468;2022-10-16T12:44:02;18.50;99.90
22450;DHT22;11392;57.390;-2.468;2022-10-16T12:51:55;18.40;99.90
22450;DHT22;11392;57.390;-2.468;2022-10-16T12:54:31;18.90;99.90
22450;DHT22;11392;57.390;-2.468;2022-10-16T12:57:24;19.10;99.90
22450;DHT22;11392;57.390;-2.468;2022-10-16T13:03:04;19.90;99.90
22450;DHT22;11392;57.390;-2.468;2022-10-16T13:06:07;20.00;99.90
22450;DHT22;11392;57.390;-2.468;2022-10-16T13:09:41;20.30;99.90
22450;DHT22;11392;57.390;-2.468;2022-10-16T13:12:03;20.20;99.90
22450;DHT22;11392;57.390;-2.468;2022-10-16T13:18:13;20.40;99.90
22450;DHT22;11392;57.390;-2.468;2022-10-16T13:20:34;20.50;99.90
22450;DHT22;11392;57.390;-2.468;2022-10-16T13:26:17;19.90;99.90
22450;DHT22;11392;57.390;-2.468;2022-10-16T13:28:47;19.90;99.90
22450;DHT22;11392;57.390;-2.468;2022-10-16T13:31:22;19.90;99.90
22450;DHT22;11392;57.390;-2.468;2022-10-16T13:33:59;19.90;99.90
22450;DHT22;11392;57.390;-2.468;2022-10-16T13:36:50;19.40;99.90
22450;DHT22;11392;57.390;-2.468;2022-10-16T13:39:25;19.20;99.90
22450;DHT22;11392;57.390;-2.468;2022-10-16T13:42:05;19.20;99.90
22450;DHT22;11392;57.390;-2.468;2022-10-16T13:44:44;18.90;99.90
22450;DHT22;11392;57.390;-2.468;2022-10-16T13:47:26;19.80;99.90
22450;DHT22;11392;57.390;-2.468;2022-10-16T13:50:01;19.80;99.90
22450;DHT22;11392;57.390;-2.468;2022-10-16T13:52:29;19.80;99.90
22450;DHT22;11392;57.390;-2.468;2022-10-16T13:54:56;20.10;99.90
22450;DHT22;11392;57.390;-2.468;2022-10-16T13:57:28;20.60;99.90
22450;DHT22;11392;57.390;-2.468;2022-10-16T13:59:55;20.70;99.90
22450;DHT22;11392;57.390;-2.468;2022-10-16T14:02:33;20.40;99.90
22450;DHT22;11392;57.390;-2.468;2022-10-16T14:05:02;20.50;99.90
22450;DHT22;11392;57.390;-2.468;2022-10-16T14:07:32;20.70;99.90
22450;DHT22;11392;57.390;-2.468;2022-10-16T14:10:03;20.30;99.90
22450;DHT22;11392;57.390;-2.468;2022-10-16T14:12:31;20.10;99.90
22450;DHT22;11392;57.390;-2.468;2022-10-16T14:14:59;19.60;99.90
22450;DHT22;11392;57.390;-2.468;2022-10-16T14:17:32;19.40;99.90
22450;DHT22;11392;57.390;-2.468;2022-10-16T14:20:02;18.60;99.90
22450;DHT22;11392;57.390;-2.468;2022-10-16T14:22:35;18.40;99.90
22450;DHT22;11392;57.390;-2.468;2022-10-16T14:28:03;19.20;99.90
22450;DHT22;11392;57.390;-2.468;2022-10-16T14:30:33;18.50;99.90
22450;DHT22;11392;57.390;-2.468;2022-10-16T14:33:04;18.00;99.90
22450;DHT22;11392;57.390;-2.468;2022-10-16T14:35:36;17.80;99.90
22450;DHT22;11392;57.390;-2.468;2022-10-16T14:38:05;17.30;99.90
22450;DHT22;11392;57.390;-2.468;2022-10-16T14:40:35;17.10;99.90
22450;DHT22;11392;57.390;-2.468;2022-10-16T14:43:04;17.10;99.90
22450;DHT22;11392;57.390;-2.468;2022-10-16T14:45:34;16.70;99.90
22450;DHT22;11392;57.390;-2.468;2022-10-16T14:48:05;16.90;99.90
22450;DHT22;11392;57.390;-2.468;2022-10-16T14:50:45;17.30;99.90
22450;DHT22;11392;57.390;-2.468;2022-10-16T14:53:13;17.30;99.90
22450;DHT22;11392;57.390;-2.468;2022-10-16T14:55:40;17.50;99.90
22450;DHT22;11392;57.390;-2.468;2022-10-16T14:58:18;17.70;99.90
22450;DHT22;11392;57.390;-2.468;2022-10-16T15:00:46;17.90;99.90
22450;DHT22;11392;57.390;-2.468;2022-10-16T15:03:13;18.20;99.90
22450;DHT22;11392;57.390;-2.468;2022-10-16T15:05:40;18.20;99.90
22450;DHT22;11392;57.390;-2.468;2022-10-16T15:08:07;18.30;99.90
22450;DHT22;11392;57.390;-2.468;2022-10-16T15:10:40;18.30;99.90
22450;DHT22;11392;57.390;-2.468;2022-10-16T15:13:13;18.20;99.90
22450;DHT22;11392;57.390;-2.468;2022-10-16T15:15:49;18.20;99.90
22450;DHT22;11392;57.390;-2.468;2022-10-16T15:18:16;17.80;99.90
22450;DHT22;11392;57.390;-2.468;2022-10-16T15:20:49;17.40;99.90
22450;DHT22;11392;57.390;-2.468;2022-10-16T15:23:18;17.00;99.90
22450;DHT22;11392;57.390;-2.468;2022-10-16T15:25:48;16.80;99.90
22450;DHT22;11392;57.390;-2.468;2022-10-16T15:28:16;16.50;99.90
22450;DHT22;11392;57.390;-2.468;2022-10-16T15:30:44;16.50;99.90
22450;DHT22;11392;57.390;-2.468;2022-10-16T15:33:26;16.30;99.90
22450;DHT22;11392;57.390;-2.468;2022-10-16T15:35:55;16.10;99.90
22450;DHT22;11392;57.390;-2.468;2022-10-16T15:38:27;16.00;99.90
22450;DHT22;11392;57.390;-2.468;2022-10-16T15:40:54;15.90;99.90
22450;DHT22;11392;57.390;-2.468;2022-10-16T15:43:22;15.80;99.90
22450;DHT22;11392;57.390;-2.468;2022-10-16T15:46:11;15.70;99.90
22450;DHT22;11392;57.390;-2.468;2022-10-16T15:48:39;15.50;99.90
22450;DHT22;11392;57.390;-2.468;2022-10-16T15:51:07;15.30;99.90
22450;DHT22;11392;57.390;-2.468;2022-10-16T15:53:35;15.20;99.90
22450;DHT22;11392;57.390;-2.468;2022-10-16T15:56:03;15.10;99.90
22450;DHT22;11392;57.390;-2.468;2022-10-16T15:58:30;15.00;99.90
22450;DHT22;11392;57.390;-2.468;2022-10-16T16:00:58;14.90;99.90
22450;DHT22;11392;57.390;-2.468;2022-10-16T16:03:28;14.90;99.90
22450;DHT22;11392;57.390;-2.468;2022-10-16T16:05:56;14.70;99.90
22450;DHT22;11392;57.390;-2.468;2022-10-16T16:08:23;14.60;99.90
22450;DHT22;11392;57.390;-2.468;2022-10-16T16:11:05;14.50;99.90
22450;DHT22;11392;57.390;-2.468;2022-10-16T16:13:32;14.50;99.90
22450;DHT22;11392;57.390;-2.468;2022-10-16T16:15:59;14.10;99.90
22450;DHT22;11392;57.390;-2.468;2022-10-16T16:18:26;13.90;99.90
22450;DHT22;11392;57.390;-2.468;2022-10-16T16:20:55;13.90;99.90
22450;DHT22;11392;57.390;-2.468;2022-10-16T16:23:22;14.10;99.90
22450;DHT22;11392;57.390;-2.468;2022-10-16T16:28:39;13.80;99.90
22450;DHT22;11392;57.390;-2.468;2022-10-16T16:31:06;13.90;99.90
22450;DHT22;11392;57.390;-2.468;2022-10-16T16:33:33;13.60;99.90
22450;DHT22;11392;57.390;-2.468;2022-10-16T16:36:04;13.40;99.90
22450;DHT22;11392;57.390;-2.468;2022-10-16T16:38:40;13.20;99.90
22450;DHT22;11392;57.390;-2.468;2022-10-16T16:41:33;12.90;99.90
22450;DHT22;11392;57.390;-2.468;2022-10-16T16:44:05;12.80;99.90
22450;DHT22;11392;57.390;-2.468;2022-10-16T16:46:33;12.80;99.90
22450;DHT22;11392;57.390;-2.468;2022-10-16T16:49:01;12.80;99.90
22450;DHT22;11392;57.390;-2.468;2022-10-16T16:51:28;12.40;99.90
22450;DHT22;11392;57.390;-2.468;2022-10-16T16:53:55;12.10;99.90
22450;DHT22;11392;57.390;-2.468;2022-10-16T16:56:23;12.00;99.90
22450;DHT22;11392;57.390;-2.468;2022-10-16T16:58:52;12.00;99.90
22450;DHT22;11392;57.390;-2.468;2022-10-16T17:01:21;11.80;99.90
22450;DHT22;11392;57.390;-2.468;2022-10-16T17:03:50;11.70;99.90
22450;DHT22;11392;57.390;-2.468;2022-10-16T17:06:27;11.50;99.90
22450;DHT22;11392;57.390;-2.468;2022-10-16T17:08:56;11.30;99.90
22450;DHT22;11392;57.390;-2.468;2022-10-16T17:11:26;11.30;99.90
22450;DHT22;11392;57.390;-2.468;2022-10-16T17:13:55;11.40;99.90
22450;DHT22;11392;57.390;-2.468;2022-10-16T17:16:25;11.30;99.90
22450;DHT22;11392;57.390;-2.468;2022-10-16T17:18:52;11.20;99.90
22450;DHT22;11392;57.390;-2.468;2022-10-16T17:21:20;11.20;99.90
22450;DHT22;11392;57.390;-2.468;2022-10-16T17:23:50;11.20;99.90
22450;DHT22;11392;57.390;-2.468;2022-10-16T17:26:17;11.30;99.90
22450;DHT22;11392;57.390;-2.468;2022-10-16T17:28:44;11.20;99.90
22450;DHT22;11392;57.390;-2.468;2022-10-16T17:33:38;10.90;99.90
22450;DHT22;11392;57.390;-2.468;2022-10-16T17:36:06;10.90;99.90
22450;DHT22;11392;57.390;-2.468;2022-10-16T17:38:34;11.00;99.90
22450;DHT22;11392;57.390;-2.468;2022-10-16T17:41:16;11.10;99.90
22450;DHT22;11392;57.390;-2.468;2022-10-16T17:43:44;11.20;99.90